AirNav   SIMCOM
 
 921 users online  

CO38 Comanche Airfield LLC Airport
Strasburg, Colorado, USA


FAA INFORMATION EFFECTIVE 20 JULY 2017

Location

FAA Identifier: CO38
Lat/Long: 39-44-49.9000N / 104-18-46.8000W
39-44.831667N / 104-18.780000W
39.7471944 / -104.3130000
(estimated)
Elevation: 5350 ft. / 1631 m (estimated)
Variation: 10E (1995)
From city: 1 mile E of STRASBURG, CO
Time zone: UTC -6 (UTC -7 during Standard Time)
Zip code: 80136

Airport Operations

Airport use: Private use. Permission required prior to landing
Activation date: 03/2000
Control tower: no
ARTCC: DENVER CENTER
FSS: DENVER FLIGHT SERVICE STATION
Attendance: UNATNDD
Wind indicator: yes
Segmented circle: no

Airport Communications

WX AWOS-3 at FTG (11 nm W): 119.025 (303-261-9104)
WX ASOS at DEN (18 nm W): PHONE 303-342-0838

Nearby radio navigation aids

VOR radial/distance  VOR name  Freq  Var
FQFr065/14.6FALCON VORTAC116.3011E
DENr096/16.5DENVER VOR/DME117.9008E
DVVr114/16.9MILE HIGH VORTAC114.7008E
BJCr094/39.3JEFFCO VOR/DME115.4011E

 
NDB name  Hdg/Dist  Freq  Var  ID
SKIPI108/6.232108EFT ..-. -

Airport Services

Runway Information

Runway 17/35

Dimensions: 3000 x 80 ft. / 914 x 24 m
Surface: dirt
RUNWAY 17  RUNWAY 35
Traffic pattern: leftleft
Obstructions: none35 ft. pline, 1700 ft. from runway

Airport Ownership and Management from official FAA records

Ownership: Privately-owned
Owner: COMANCHE AIRFIELD LLC
P.O. BOX 448
STRASBURG, CO 80136
Phone 303-622-9654
Manager: MARCUS LEE REES
P.O. BOX 448
STRASBURG, CO 80136
Phone 303-622-9654

Airport Operational Statistics

Aircraft based on the field: 11
Single engine airplanes: 8
Multi engine airplanes: 1
Ultralights: 2
    

Instrument Procedures

There are no published instrument procedures at CO38.

Some nearby airports with instrument procedures:

KFTG - Front Range Airport (11 nm W)
KDEN - Denver International Airport (18 nm NW)
KBKF - Buckley Air Force Base (20 nm W)
KAPA - Centennial Airport (27 nm SW)
KEIK - Erie Municipal Airport (37 nm NW)
 
Loc | Ops | Rwys | IFR | FBO | Links
Com | Nav | Svcs | Stats | Notes


 
Area around CO38 (Comanche Airfield LLC Airport)
 
Road maps at: MapQuest Bing Google
 
Aerial photo
No photo
 
Sectional chart

 
Airport distance calculator
Flying to Comanche Airfield LLC Airport? Find the distance to fly.

From to CO38

Sunrise and sunset
Times for 23-Jul-2017
 Local
(UTC-6)
 Zulu
(UTC)
Morning civil twilight05:1811:18
Sunrise05:4911:49
Sunset20:1802:18
Evening civil twilight20:4902:49

Current date and time
Zulu (UTC)  24-Jul-2017 01:54:22
Local (UTC-6)  23-Jul-2017 19:54:22
 
METAR
KFTG 
11nm W 
240135Z AUTO 13013G18KT 10SM CLR 30/06 A3013 RMK AO2
KDEN 
16nm W 
240053Z 21012KT 10SM FEW100 FEW160 SCT220 31/07 A3011 RMK AO2 SLP105 T03110072 $
KBKF 
20nm W 
240058Z 18009KT 10SM FEW090 FEW200 29/09 A3014 RMK AO2A SLP127 T02850094
TAF
KDEN 
16nm W 
240014Z 2400/2506 15012KT P6SM VCTS SCT090CB BKN150 FM240100 19012KT P6SM SCT150 SCT220 FM241500 VRB05KT P6SM FEW150 SCT220 FM241800 13008KT P6SM FEW080 SCT220 FM242100 10010KT P6SM SCT080 BKN150 FM250200 16008KT P6SM FEW080 SCT150
KBKF 
20nm W 
232303Z 2323/2423 VRB06KT 9999 FEW080 SCT150 QNH3011INS TEMPO 2323/2402 VRB15G25KT 9000 -TSRA SCT090CB BKN150 BECMG 2401/2402 19009KT 9999 FEW120 SCT200 QNH3012INS TX29/2323Z TN17/2412Z
NOTAMs
Click for the latest NOTAMs
NOTAMs are issued by the DoD/FAA and will open in a separate window not controlled by AirNav.

 

 
 

Would you like to see your business listed on this page?

 If your business provides an interesting product or service to pilots, flight crews, aircraft, or users of the Comanche Airfield LLC Airport, you should consider listing it here.  To start the listing process, click on the button below
 
Add a business
 

Other Pages about Comanche Airfield LLC Airport

Update a link
 
Copyright © AirNav, LLC. All rights reserved. Privacy Policy  Contact